createdAt,value
2023-02-01T00:01:22.032Z,4.24
2023-02-01T00:03:53.439Z,4.16
2023-02-01T00:06:25.344Z,4.07
2023-02-01T00:08:58.777Z,4.01
2023-02-01T00:11:33.154Z,4.04
2023-02-01T00:14:05.244Z,3.88
2023-02-01T00:16:35.968Z,3.91
2023-02-01T00:19:12.769Z,3.85
2023-02-01T00:21:44.886Z,3.90
2023-02-01T00:24:15.730Z,3.90
2023-02-01T00:26:49.588Z,3.90
2023-02-01T00:29:24.527Z,4.02
2023-02-01T00:31:54.881Z,4.04
2023-02-01T00:34:26.062Z,4.12
2023-02-01T00:36:56.588Z,4.06
2023-02-01T00:39:27.173Z,4.00
2023-02-01T00:41:58.268Z,3.85
2023-02-01T00:44:28.923Z,3.86
2023-02-01T00:46:59.401Z,3.93
2023-02-01T00:49:31.351Z,4.04
2023-02-01T00:52:03.078Z,3.95
2023-02-01T00:54:36.756Z,4.04
2023-02-01T00:57:07.937Z,4.08
2023-02-01T00:59:39.257Z,4.04
2023-02-01T01:02:11.386Z,4.05
2023-02-01T01:04:42.150Z,3.94
2023-02-01T01:07:15.578Z,3.85
2023-02-01T01:09:48.241Z,3.80
2023-02-01T01:12:20.579Z,3.88
2023-02-01T01:14:52.907Z,3.86
2023-02-01T01:17:23.290Z,3.81
2023-02-01T01:19:54.076Z,3.82
2023-02-01T01:22:24.678Z,3.74
2023-02-01T01:24:56.349Z,3.72
2023-02-01T01:27:26.789Z,3.78
2023-02-01T01:29:57.495Z,3.77
2023-02-01T01:32:29.890Z,3.93
2023-02-01T01:35:00.313Z,3.84
2023-02-01T01:37:31.767Z,3.98
2023-02-01T01:40:03.381Z,3.93
2023-02-01T01:42:43.095Z,3.99
2023-02-01T01:45:21.684Z,3.89
2023-02-01T01:47:58.282Z,3.91
2023-02-01T01:50:39.349Z,3.86
2023-02-01T01:53:13.221Z,3.94
2023-02-01T01:55:48.345Z,3.98
2023-02-01T01:58:22.254Z,3.90
2023-02-01T02:00:54.628Z,4.00
2023-02-01T02:03:35.370Z,4.10
2023-02-01T02:06:09.202Z,4.08
2023-02-01T02:08:39.679Z,4.04
2023-02-01T02:11:13.699Z,4.06
2023-02-01T02:13:48.379Z,4.10
2023-02-01T02:16:33.005Z,4.15
2023-02-01T02:19:12.713Z,4.08
2023-02-01T02:21:58.126Z,4.19
2023-02-01T02:24:34.473Z,4.04
2023-02-01T02:27:26.181Z,4.08
2023-02-01T02:30:16.431Z,4.06
2023-02-01T02:32:55.908Z,4.03
2023-02-01T02:35:50.671Z,4.06
2023-02-01T02:38:38.579Z,4.10
2023-02-01T02:41:53.088Z,4.16
2023-02-01T02:45:07.296Z,4.23
2023-02-01T02:47:56.040Z,4.20
2023-02-01T02:50:57.029Z,4.14
2023-02-01T02:53:54.075Z,4.22
2023-02-01T02:56:44.796Z,4.25
2023-02-01T02:59:36.290Z,4.19
2023-02-01T03:02:25.949Z,4.26
2023-02-01T03:04:58.815Z,4.26
2023-02-01T03:07:56.439Z,4.24
2023-02-01T03:10:35.167Z,4.28
2023-02-01T03:13:11.791Z,4.19
2023-02-01T03:16:01.698Z,4.26
2023-02-01T03:18:50.118Z,4.20
2023-02-01T03:21:24.723Z,4.30
2023-02-01T03:23:57.598Z,4.26
2023-02-01T03:26:30.954Z,4.29
2023-02-01T03:29:05.596Z,4.26
2023-02-01T03:31:36.302Z,4.28
2023-02-01T03:34:07.175Z,4.21
2023-02-01T03:36:52.681Z,4.28
2023-02-01T03:39:32.260Z,4.12
2023-02-01T03:42:05.814Z,4.30
2023-02-01T03:44:57.646Z,4.28
2023-02-01T03:47:31.715Z,4.28
2023-02-01T03:50:05.252Z,4.20
2023-02-01T03:52:48.108Z,4.10
2023-02-01T03:55:21.960Z,4.22
2023-02-01T03:58:04.593Z,4.21
2023-02-01T04:00:37.564Z,4.38
2023-02-01T04:03:10.228Z,4.36
2023-02-01T04:05:40.690Z,4.34
2023-02-01T04:08:11.728Z,4.51
2023-02-01T04:10:42.253Z,4.56
2023-02-01T04:13:12.704Z,4.50
2023-02-01T04:15:43.278Z,4.65
2023-02-01T04:18:14.723Z,4.65
2023-02-01T04:20:47.354Z,4.60
2023-02-01T04:23:17.867Z,4.72
2023-02-01T04:25:48.470Z,4.66
2023-02-01T04:28:23.267Z,4.65
2023-02-01T04:30:54.605Z,4.68
2023-02-01T04:33:25.241Z,4.82
2023-02-01T04:35:57.269Z,4.82
2023-02-01T04:38:30.347Z,4.76
2023-02-01T04:41:01.603Z,4.94
2023-02-01T04:43:31.992Z,4.88
2023-02-01T04:46:03.258Z,4.89
2023-02-01T04:48:33.641Z,4.99
2023-02-01T04:51:05.873Z,5.04
2023-02-01T04:53:38.303Z,4.98
2023-02-01T04:56:09.088Z,5.06
2023-02-01T04:58:39.596Z,5.11
2023-02-01T05:01:10.153Z,5.19
2023-02-01T05:03:41.178Z,5.16
2023-02-01T05:06:13.746Z,5.14
2023-02-01T05:08:44.235Z,5.11
2023-02-01T05:11:32.815Z,5.08
2023-02-01T05:14:03.337Z,5.14
2023-02-01T05:16:35.339Z,5.14
2023-02-01T05:19:05.890Z,5.19
2023-02-01T05:21:37.065Z,5.18
2023-02-01T05:24:13.982Z,5.17
2023-02-01T05:26:46.262Z,5.10
2023-02-01T05:29:18.907Z,5.22
2023-02-01T05:31:50.779Z,5.26
2023-02-01T05:34:24.124Z,5.21
2023-02-01T05:36:56.771Z,5.16
2023-02-01T05:39:27.266Z,5.20
2023-02-01T05:41:57.846Z,5.27
2023-02-01T05:44:28.840Z,5.32
2023-02-01T05:46:59.491Z,5.19
2023-02-01T05:49:29.993Z,5.28
2023-02-01T05:52:01.081Z,5.20
2023-02-01T05:54:32.761Z,5.14
2023-02-01T05:57:03.530Z,5.21
2023-02-01T05:59:33.985Z,5.22
2023-02-01T06:02:04.430Z,5.34
2023-02-01T06:04:35.082Z,5.26
2023-02-01T06:07:05.626Z,5.24
2023-02-01T06:09:38.442Z,5.26
2023-02-01T06:12:09.252Z,5.15
2023-02-01T06:14:40.599Z,5.14
2023-02-01T06:17:11.177Z,5.10
2023-02-01T06:19:45.867Z,5.06
2023-02-01T06:22:17.854Z,5.10
2023-02-01T06:24:48.666Z,4.98
2023-02-01T06:27:19.252Z,4.98
2023-02-01T06:29:49.664Z,4.88
2023-02-01T06:32:20.341Z,4.90
2023-02-01T06:34:53.900Z,4.80
2023-02-01T06:37:28.257Z,4.78
2023-02-01T06:39:58.743Z,4.70
2023-02-01T06:42:29.409Z,4.74
2023-02-01T06:45:00.211Z,4.84
2023-02-01T06:47:31.919Z,4.78
2023-02-01T06:50:02.571Z,4.73
2023-02-01T06:52:33.394Z,4.79
2023-02-01T06:55:07.032Z,4.88
2023-02-01T06:57:37.612Z,4.86
2023-02-01T07:00:10.683Z,4.93
2023-02-01T07:02:42.293Z,4.92
2023-02-01T07:05:14.191Z,5.07
2023-02-01T07:07:45.888Z,4.92
2023-02-01T07:10:16.500Z,5.06
2023-02-01T07:12:46.989Z,5.19
2023-02-01T07:15:19.796Z,5.09
2023-02-01T07:17:50.595Z,5.10
2023-02-01T07:20:21.883Z,4.98
2023-02-01T07:22:59.136Z,5.03
2023-02-01T07:25:31.731Z,4.86
2023-02-01T07:28:03.846Z,4.84
2023-02-01T07:30:34.437Z,4.78
2023-02-01T07:33:06.210Z,4.84
2023-02-01T07:35:38.207Z,5.04
2023-02-01T07:38:08.651Z,5.00
2023-02-01T07:40:39.463Z,5.02
2023-02-01T07:43:10.566Z,4.98
2023-02-01T07:45:41.336Z,4.85
2023-02-01T07:48:12.518Z,4.78
2023-02-01T07:50:43.072Z,4.67
2023-02-01T07:53:14.678Z,4.56
2023-02-01T07:55:45.122Z,4.49
2023-02-01T07:58:16.993Z,4.22
2023-02-01T08:01:05.602Z,4.22
2023-02-01T08:03:37.760Z,4.18
2023-02-01T08:06:08.614Z,4.16
2023-02-01T08:08:39.417Z,4.08
2023-02-01T08:11:11.184Z,4.07
2023-02-01T08:13:42.097Z,3.95
2023-02-01T08:16:15.193Z,3.82
2023-02-01T08:18:45.721Z,3.98
2023-02-01T08:21:19.445Z,4.01
2023-02-01T08:23:50.298Z,3.98
2023-02-01T08:26:26.780Z,3.94
2023-02-01T08:29:00.560Z,3.89
2023-02-01T08:31:32.623Z,3.90
2023-02-01T08:34:10.445Z,3.86
2023-02-01T08:36:43.126Z,3.86
2023-02-01T08:39:14.125Z,3.92
2023-02-01T08:41:46.255Z,3.84
2023-02-01T08:44:16.879Z,3.81
2023-02-01T08:46:49.093Z,3.88
2023-02-01T08:49:20.153Z,3.84
2023-02-01T08:51:50.669Z,3.76
2023-02-01T08:54:22.084Z,3.73
2023-02-01T08:56:54.262Z,3.80
2023-02-01T08:59:27.431Z,3.74
2023-02-01T09:01:59.995Z,3.74
2023-02-01T09:04:31.082Z,3.76
2023-02-01T09:07:01.675Z,3.76
2023-02-01T09:09:32.152Z,3.84
2023-02-01T09:12:02.924Z,3.88
2023-02-01T09:14:33.731Z,3.86
2023-02-01T09:17:06.233Z,3.90
2023-02-01T09:19:36.886Z,4.12
2023-02-01T09:22:07.726Z,4.12
2023-02-01T09:24:42.390Z,4.06
2023-02-01T09:27:13.715Z,4.02
2023-02-01T09:29:44.453Z,4.10
2023-02-01T09:32:14.929Z,4.21
2023-02-01T09:34:46.767Z,4.23
2023-02-01T09:37:17.997Z,4.23
2023-02-01T09:39:48.688Z,4.28
2023-02-01T09:42:22.147Z,4.24
2023-02-01T09:45:02.354Z,4.25
2023-02-01T09:47:34.864Z,4.17
2023-02-01T09:50:22.672Z,4.13
2023-02-01T09:53:13.786Z,4.21
2023-02-01T09:55:47.700Z,4.27
2023-02-01T09:58:29.668Z,4.32
2023-02-01T10:01:04.149Z,4.30
2023-02-01T10:03:37.138Z,4.30
2023-02-01T10:06:23.702Z,4.20
2023-02-01T10:09:11.337Z,4.01
2023-02-01T10:11:50.718Z,4.08
2023-02-01T10:14:27.400Z,4.10
2023-02-01T10:17:12.750Z,4.08
2023-02-01T10:20:13.919Z,4.12
2023-02-01T10:23:19.501Z,4.17
2023-02-01T10:25:39.297Z,4.18
2023-02-01T10:28:12.936Z,4.20
2023-02-01T10:30:46.597Z,4.18
2023-02-01T10:33:36.711Z,4.28
2023-02-01T10:36:22.191Z,4.39
2023-02-01T10:38:54.984Z,4.47
2023-02-01T10:41:31.649Z,4.40
2023-02-01T10:44:09.658Z,4.42
2023-02-01T10:46:43.486Z,4.40
2023-02-01T10:49:29.763Z,4.44
2023-02-01T10:52:15.822Z,4.26
2023-02-01T10:54:47.950Z,4.18
2023-02-01T10:57:26.037Z,4.14
2023-02-01T10:59:59.512Z,4.10
2023-02-01T11:02:40.051Z,4.10
2023-02-01T11:05:13.320Z,4.18
2023-02-01T11:07:52.071Z,4.34
2023-02-01T11:10:38.176Z,4.58
2023-02-01T11:13:18.668Z,4.69
2023-02-01T11:15:52.151Z,4.58
2023-02-01T11:18:28.826Z,4.58
2023-02-01T11:21:03.586Z,4.61
2023-02-01T11:23:37.426Z,4.78
2023-02-01T11:26:17.878Z,4.80
2023-02-01T11:28:51.423Z,4.91
2023-02-01T11:31:24.322Z,5.02
2023-02-01T11:34:00.361Z,5.43
2023-02-01T11:36:35.639Z,5.46
2023-02-01T11:39:23.707Z,5.40
2023-02-01T11:42:18.320Z,5.22
2023-02-01T11:44:50.028Z,5.37
2023-02-01T11:47:39.083Z,5.44
2023-02-01T11:50:23.853Z,5.42
2023-02-01T11:53:03.534Z,5.63
2023-02-01T11:55:56.721Z,5.78
2023-02-01T11:58:45.266Z,6.09
2023-02-01T12:01:33.780Z,6.14
2023-02-01T12:04:10.475Z,6.24
2023-02-01T12:07:08.446Z,6.20
2023-02-01T12:09:45.043Z,6.14
2023-02-01T12:12:55.047Z,6.22
2023-02-01T12:15:49.465Z,6.24
2023-02-01T12:18:34.710Z,6.34
2023-02-01T12:21:11.388Z,6.29
2023-02-01T12:24:10.904Z,6.20
2023-02-01T12:26:53.841Z,6.16
2023-02-01T12:29:41.525Z,6.02
2023-02-01T12:32:22.276Z,5.86
2023-02-01T12:35:04.321Z,5.96
2023-02-01T12:37:47.404Z,7.91
2023-02-01T12:40:55.757Z,8.34
2023-02-01T12:43:43.103Z,7.10
2023-02-01T12:46:22.966Z,6.66
2023-02-01T12:49:04.972Z,6.40
2023-02-01T12:51:40.274Z,6.34
2023-02-01T12:54:29.122Z,6.23
2023-02-01T12:57:06.519Z,6.40
2023-02-01T12:59:56.267Z,6.44
2023-02-01T13:02:40.297Z,6.44
2023-02-01T13:05:21.952Z,6.38
2023-02-01T13:07:55.453Z,6.42
2023-02-01T13:10:42.430Z,6.62
2023-02-01T13:13:24.772Z,6.58
2023-02-01T13:16:10.198Z,6.44
2023-02-01T13:18:45.729Z,6.50
2023-02-01T13:21:22.559Z,6.40
2023-02-01T13:23:55.130Z,6.24
2023-02-01T13:26:25.731Z,6.47
2023-02-01T13:29:07.899Z,6.36
2023-02-01T13:31:46.410Z,6.40
2023-02-01T13:34:43.831Z,6.32
2023-02-01T13:37:36.160Z,6.34
2023-02-01T13:40:15.582Z,6.47
2023-02-01T13:42:58.847Z,6.41
2023-02-01T13:45:35.862Z,6.38
2023-02-01T13:48:10.099Z,6.43
2023-02-01T13:50:42.707Z,6.35
2023-02-01T13:53:17.599Z,6.39
2023-02-01T13:55:52.538Z,6.43
2023-02-01T13:58:28.219Z,6.49
2023-02-01T14:01:24.539Z,6.42
2023-02-01T14:03:58.115Z,6.46
2023-02-01T14:06:39.160Z,6.44
2023-02-01T14:09:18.672Z,6.42
2023-02-01T14:11:54.789Z,6.38
2023-02-01T14:14:29.082Z,5.93
2023-02-01T14:17:02.759Z,5.66
2023-02-01T14:19:35.744Z,5.62
2023-02-01T14:22:36.076Z,5.54
2023-02-01T14:25:08.603Z,5.46
2023-02-01T14:27:40.475Z,5.49
2023-02-01T14:30:14.144Z,5.62
2023-02-01T14:32:49.352Z,5.67
2023-02-01T14:35:28.083Z,5.71
2023-02-01T14:38:05.038Z,5.69
2023-02-01T14:40:36.947Z,5.72
2023-02-01T14:43:09.684Z,5.97
2023-02-01T14:45:46.000Z,5.85
2023-02-01T14:48:19.589Z,5.92
2023-02-01T14:50:51.481Z,5.89
2023-02-01T14:53:30.151Z,5.84
2023-02-01T14:56:10.208Z,5.88
2023-02-01T14:59:02.631Z,5.91
2023-02-01T15:01:36.177Z,5.86
2023-02-01T15:04:23.016Z,5.86
2023-02-01T15:06:58.274Z,5.91
2023-02-01T15:09:41.320Z,5.88
2023-02-01T15:12:28.588Z,5.64
2023-02-01T15:15:25.070Z,5.44
2023-02-01T15:18:00.992Z,5.30
2023-02-01T15:20:34.530Z,5.12
2023-02-01T15:23:11.461Z,4.98
2023-02-01T15:25:46.836Z,4.84
2023-02-01T15:28:18.614Z,4.68
2023-02-01T15:30:58.162Z,4.64
2023-02-01T15:33:31.647Z,4.64
2023-02-01T15:36:13.182Z,4.41
2023-02-01T15:38:45.559Z,4.24
2023-02-01T15:41:25.405Z,4.14
2023-02-01T15:43:59.069Z,4.06
2023-02-01T15:46:35.449Z,3.88
2023-02-01T15:49:09.646Z,3.82
2023-02-01T15:51:43.384Z,3.70
2023-02-01T15:54:22.865Z,3.59
2023-02-01T15:56:57.730Z,3.38
2023-02-01T15:59:34.949Z,3.26
2023-02-01T16:02:05.452Z,3.12
2023-02-01T16:04:39.289Z,3.15
2023-02-01T16:07:12.965Z,3.02
2023-02-01T16:09:51.907Z,2.90
2023-02-01T16:12:28.196Z,2.80
2023-02-01T16:14:59.092Z,2.74
2023-02-01T16:17:30.105Z,2.70
2023-02-01T16:20:00.900Z,2.69
2023-02-01T16:22:33.509Z,2.57
2023-02-01T16:25:04.144Z,2.71
2023-02-01T16:27:37.493Z,2.68
2023-02-01T16:30:10.969Z,2.66
2023-02-01T16:32:42.211Z,2.68
2023-02-01T16:35:20.085Z,2.62
2023-02-01T16:37:52.998Z,2.59
2023-02-01T16:40:25.476Z,2.66
2023-02-01T16:42:56.513Z,2.66
2023-02-01T16:45:27.504Z,2.73
2023-02-01T16:48:01.282Z,2.71
2023-02-01T16:50:33.868Z,2.69
2023-02-01T16:53:09.250Z,2.80
2023-02-01T16:55:41.239Z,2.72
2023-02-01T16:58:13.561Z,2.76
2023-02-01T17:00:48.694Z,2.88
2023-02-01T17:03:20.648Z,2.92
2023-02-01T17:05:54.732Z,2.97
2023-02-01T17:08:30.008Z,2.98
2023-02-01T17:11:01.346Z,3.04
2023-02-01T17:13:32.079Z,3.05
2023-02-01T17:16:08.657Z,3.12
2023-02-01T17:18:40.692Z,3.12
2023-02-01T17:21:12.530Z,3.15
2023-02-01T17:23:43.247Z,3.16
2023-02-01T17:26:13.814Z,3.18
2023-02-01T17:28:44.938Z,3.24
2023-02-01T17:31:17.141Z,3.26
2023-02-01T17:33:47.816Z,3.36
2023-02-01T17:36:23.161Z,3.37
2023-02-01T17:39:05.379Z,3.38
2023-02-01T17:41:27.833Z,3.44
2023-02-01T17:44:05.941Z,3.42
2023-02-01T17:46:45.002Z,3.52
2023-02-01T17:49:15.493Z,3.54
2023-02-01T17:51:50.629Z,3.50
2023-02-01T17:54:20.644Z,3.48
2023-02-01T17:56:51.717Z,3.49
2023-02-01T17:59:22.370Z,3.50
2023-02-01T18:01:56.051Z,3.50
2023-02-01T18:04:27.896Z,3.63
2023-02-01T18:06:59.742Z,3.64
2023-02-01T18:09:30.264Z,3.58
2023-02-01T18:12:00.921Z,3.64
2023-02-01T18:14:32.345Z,3.64
2023-02-01T18:17:03.081Z,3.70
2023-02-01T18:19:34.992Z,3.70
2023-02-01T18:22:05.864Z,3.64
2023-02-01T18:24:38.709Z,3.70
2023-02-01T18:27:13.424Z,3.75
2023-02-01T18:29:44.567Z,3.80
2023-02-01T18:32:18.543Z,3.79
2023-02-01T18:34:48.977Z,3.79
2023-02-01T18:37:21.203Z,3.84
2023-02-01T18:39:53.309Z,3.92
2023-02-01T18:42:23.791Z,3.88
2023-02-01T18:44:54.262Z,3.92
2023-02-01T18:47:30.680Z,3.88
2023-02-01T18:50:01.112Z,3.90
2023-02-01T18:52:32.097Z,3.94
2023-02-01T18:55:05.564Z,4.06
2023-02-01T18:57:36.104Z,3.96
2023-02-01T19:00:12.163Z,3.90
2023-02-01T19:02:44.562Z,3.98
2023-02-01T19:05:16.996Z,4.02
2023-02-01T19:07:49.279Z,4.07
2023-02-01T19:10:27.813Z,4.08
2023-02-01T19:12:58.927Z,4.06
2023-02-01T19:15:36.642Z,4.17
2023-02-01T19:18:09.606Z,4.16
2023-02-01T19:20:45.091Z,4.26
2023-02-01T19:23:16.111Z,4.28
2023-02-01T19:25:50.708Z,4.12
2023-02-01T19:28:21.611Z,4.15
2023-02-01T19:31:06.539Z,4.24
2023-02-01T19:33:39.593Z,4.15
2023-02-01T19:36:11.860Z,4.19
2023-02-01T19:38:42.483Z,4.26
2023-02-01T19:41:14.136Z,4.34
2023-02-01T19:43:44.933Z,4.22
2023-02-01T19:46:17.095Z,4.28
2023-02-01T19:48:48.944Z,4.30
2023-02-01T19:51:24.154Z,4.32
2023-02-01T19:53:56.215Z,4.30
2023-02-01T19:56:26.981Z,4.40
2023-02-01T19:58:57.524Z,4.28
2023-02-01T20:01:30.480Z,4.32
2023-02-01T20:04:06.375Z,4.36
2023-02-01T20:06:39.417Z,4.40
2023-02-01T20:09:13.006Z,4.28
2023-02-01T20:11:46.102Z,4.26
2023-02-01T20:14:17.203Z,4.29
2023-02-01T20:16:48.375Z,4.28
2023-02-01T20:19:20.735Z,4.32
2023-02-01T20:21:51.164Z,4.34
2023-02-01T20:24:23.171Z,4.28
2023-02-01T20:26:57.713Z,4.28
2023-02-01T20:29:28.338Z,4.28
2023-02-01T20:32:00.798Z,4.16
2023-02-01T20:34:32.773Z,4.28
2023-02-01T20:37:03.602Z,4.18
2023-02-01T20:39:35.753Z,4.20
2023-02-01T20:42:08.456Z,4.20
2023-02-01T20:44:39.185Z,4.11
2023-02-01T20:47:09.649Z,4.05
2023-02-01T20:49:41.762Z,3.98
2023-02-01T20:52:12.219Z,4.07
2023-02-01T20:54:44.657Z,4.03
2023-02-01T20:57:17.176Z,4.00
2023-02-01T20:59:49.644Z,3.88
2023-02-01T21:02:21.878Z,3.92
2023-02-01T21:04:55.290Z,3.99
2023-02-01T21:07:25.716Z,3.80
2023-02-01T21:09:59.381Z,3.84
2023-02-01T21:12:29.961Z,3.92
2023-02-01T21:15:00.904Z,3.96
2023-02-01T21:17:34.336Z,3.78
2023-02-01T21:20:07.562Z,3.75
2023-02-01T21:22:42.690Z,3.54
2023-02-01T21:25:13.642Z,3.67
2023-02-01T21:27:44.327Z,3.52
2023-02-01T21:30:16.597Z,3.46
2023-02-01T21:32:48.786Z,3.38
2023-02-01T21:35:19.340Z,3.44
2023-02-01T21:37:50.954Z,3.47
2023-02-01T21:40:21.680Z,3.49
2023-02-01T21:42:55.539Z,3.34
2023-02-01T21:45:26.387Z,3.40
2023-02-01T21:48:05.228Z,3.34
2023-02-01T21:50:36.800Z,3.34
2023-02-01T21:53:08.954Z,3.33
2023-02-01T21:55:39.928Z,3.32
2023-02-01T21:58:12.831Z,3.34
2023-02-01T22:00:45.474Z,3.47
2023-02-01T22:03:16.075Z,3.38
2023-02-01T22:05:49.542Z,3.47
2023-02-01T22:08:21.359Z,3.57
2023-02-01T22:10:55.004Z,3.62
2023-02-01T22:13:25.432Z,3.68
2023-02-01T22:15:58.652Z,3.78
2023-02-01T22:18:29.969Z,5.11
2023-02-01T22:21:03.795Z,6.94
2023-02-01T22:23:36.332Z,7.50
2023-02-01T22:26:09.607Z,5.50
2023-02-01T22:28:41.493Z,4.88
2023-02-01T22:31:12.376Z,4.47
2023-02-01T22:33:43.036Z,4.29
2023-02-01T22:36:16.572Z,4.28
2023-02-01T22:38:48.668Z,4.15
2023-02-01T22:41:20.342Z,4.16
2023-02-01T22:43:51.596Z,4.04
2023-02-01T22:46:29.285Z,4.12
2023-02-01T22:49:01.829Z,4.00
2023-02-01T22:51:33.583Z,4.14
2023-02-01T22:54:06.549Z,4.00
2023-02-01T22:56:38.350Z,4.06
2023-02-01T22:59:13.248Z,4.03
2023-02-01T23:01:46.343Z,4.12
2023-02-01T23:04:18.317Z,4.04
2023-02-01T23:06:52.894Z,4.08
2023-02-01T23:09:25.877Z,4.07
2023-02-01T23:11:56.445Z,4.04
2023-02-01T23:14:29.840Z,4.04
2023-02-01T23:17:01.847Z,3.94
2023-02-01T23:19:32.698Z,3.98
2023-02-01T23:22:06.982Z,3.96
2023-02-01T23:24:50.427Z,3.96
2023-02-01T23:27:21.476Z,3.84
2023-02-01T23:29:51.950Z,3.94
2023-02-01T23:32:22.585Z,3.88
2023-02-01T23:34:53.671Z,3.94
2023-02-01T23:37:24.286Z,3.82
2023-02-01T23:39:55.882Z,3.92
2023-02-01T23:42:26.655Z,3.88
2023-02-01T23:44:57.263Z,4.01
2023-02-01T23:47:28.731Z,4.01
2023-02-01T23:50:00.607Z,4.18
2023-02-01T23:52:32.669Z,4.30
2023-02-01T23:55:03.507Z,4.32
2023-02-01T23:57:34.080Z,4.28
